Time;durP1;ratioP1;P1;durP2;ratioP2;P2;SDS_P1;SDS_P2;PMS_P1;PMS_P2;Temp;Humidity;BMP_temperature;BMP_pressure;BME280_temperature;BME280_humidity;BME280_pressure;Samples;Min_cycle;Max_cycle;Signal;HPM_P1;HPM_P2
2021/10/12 00:02:22;;;;;;;1.63;0.70;;;18.20;71.20;;;;;;5010063;28;20030;-70
2021/10/12 00:04:49;;;;;;;3.53;1.08;;;18.10;71.40;;;;;;5009447;28;20025;-64
2021/10/12 00:07:17;;;;;;;4.00;1.00;;;18.20;71.40;;;;;;5009150;28;20026;-61
2021/10/12 00:09:45;;;;;;;3.90;1.05;;;18.20;71.40;;;;;;5008822;28;20098;-64
2021/10/12 00:12:13;;;;;;;3.50;1.02;;;18.10;71.50;;;;;;5009778;28;20373;-62
2021/10/12 00:14:40;;;;;;;3.42;0.82;;;18.10;71.60;;;;;;5009420;28;20026;-57
2021/10/12 00:17:08;;;;;;;4.00;1.10;;;18.10;71.70;;;;;;5009598;28;20485;-60
2021/10/12 00:19:36;;;;;;;2.38;0.90;;;18.10;72.00;;;;;;5009413;28;20030;-60
2021/10/12 00:22:04;;;;;;;2.60;1.05;;;18.10;72.00;;;;;;5014979;28;20056;-64
2021/10/12 00:24:32;;;;;;;1.77;0.80;;;18.10;72.20;;;;;;5016025;28;20036;-64
2021/10/12 00:27:00;;;;;;;4.70;1.25;;;18.10;72.20;;;;;;5016086;28;20337;-64
2021/10/12 00:29:28;;;;;;;3.55;1.08;;;18.10;72.90;;;;;;5016020;28;20026;-62
2021/10/12 00:31:56;;;;;;;3.17;1.17;;;18.10;72.60;;;;;;4997599;28;20042;-63
2021/10/12 00:34:23;;;;;;;2.35;0.88;;;18.10;72.60;;;;;;5015925;28;20034;-61
2021/10/12 00:36:52;;;;;;;5.88;1.38;;;18.10;72.60;;;;;;5006449;28;20065;-65
2021/10/12 00:39:19;;;;;;;6.05;1.42;;;18.10;73.00;;;;;;4998044;28;20472;-61
2021/10/12 00:41:48;;;;;;;3.22;0.90;;;18.10;76.10;;;;;;5018527;28;20025;-61
2021/10/12 00:44:15;;;;;;;4.78;1.45;;;18.10;74.70;;;;;;5017870;28;20476;-61
2021/10/12 00:46:44;;;;;;;8.68;1.10;;;18.10;73.80;;;;;;5017993;28;20468;-62
2021/10/12 00:49:11;;;;;;;3.13;1.40;;;18.10;73.60;;;;;;5017862;28;20132;-58
2021/10/12 00:51:39;;;;;;;5.47;1.25;;;18.10;73.50;;;;;;5015362;28;20150;-64
2021/10/12 00:54:07;;;;;;;4.88;1.30;;;18.20;73.70;;;;;;5015482;28;20125;-64
2021/10/12 00:56:34;;;;;;;2.40;0.90;;;18.20;73.80;;;;;;5012236;28;20093;-61
2021/10/12 00:59:04;;;;;;;7.68;1.23;;;18.20;73.60;;;;;;5015500;28;20050;-49
2021/10/12 01:01:32;;;;;;;3.50;0.95;;;18.20;74.10;;;;;;5014944;28;20053;-58
2021/10/12 01:04:00;;;;;;;3.67;1.23;;;18.20;74.00;;;;;;4998000;28;20029;-50
2021/10/12 01:06:27;;;;;;;6.32;1.38;;;18.20;74.90;;;;;;5015484;28;20022;-64
2021/10/12 01:08:55;;;;;;;3.17;1.17;;;18.10;75.40;;;;;;4997823;28;20049;-62
2021/10/12 01:11:23;;;;;;;1.45;0.60;;;18.20;75.20;;;;;;4997891;28;20366;-64
2021/10/12 01:13:51;;;;;;;3.53;1.13;;;18.20;74.70;;;;;;5014926;28;20411;-64
2021/10/12 01:16:18;;;;;;;3.92;1.17;;;18.20;74.60;;;;;;4997422;28;20026;-63
2021/10/12 01:18:58;;;;;;;1.88;0.60;;;18.20;74.40;;;;;;5015393;28;20030;-64
2021/10/12 01:21:28;;;;;;;7.53;1.23;;;18.20;74.40;;;;;;5015509;28;20022;-58
2021/10/12 01:23:57;;;;;;;3.60;1.15;;;18.20;74.30;;;;;;5015029;28;20116;-63
2021/10/12 01:26:25;;;;;;;2.97;0.90;;;18.30;74.40;;;;;;5014997;28;20480;-60
2021/10/12 01:28:53;;;;;;;3.03;1.02;;;18.30;74.40;;;;;;5015374;28;20034;-61
2021/10/12 01:31:24;;;;;;;3.80;1.48;;;18.30;74.40;;;;;;5015213;28;20018;-65
2021/10/12 01:33:52;;;;;;;3.78;0.95;;;18.30;74.40;;;;;;5011684;28;20062;-65
2021/10/12 01:36:21;;;;;;;2.88;0.80;;;18.30;74.50;;;;;;5011763;28;20030;-60
2021/10/12 01:38:49;;;;;;;3.65;1.42;;;18.40;74.30;;;;;;5012020;28;20033;-63
2021/10/12 01:41:17;;;;;;;8.30;1.40;;;18.40;74.40;;;;;;5011304;28;20029;-63
2021/10/12 01:43:44;;;;;;;4.22;0.93;;;18.40;74.40;;;;;;4993519;28;20061;-62
2021/10/12 01:46:12;;;;;;;5.30;1.13;;;18.40;74.40;;;;;;5011671;28;20022;-64
2021/10/12 01:48:40;;;;;;;3.92;1.15;;;18.50;74.60;;;;;;5010514;28;20034;-64
2021/10/12 01:51:07;;;;;;;6.78;1.00;;;18.50;74.60;;;;;;5011024;28;20109;-64
2021/10/12 01:53:35;;;;;;;4.07;1.27;;;18.50;74.70;;;;;;5011473;28;20054;-64
2021/10/12 01:56:04;;;;;;;3.58;0.95;;;18.60;74.50;;;;;;5011089;28;20026;-61
2021/10/12 01:58:31;;;;;;;2.67;0.80;;;18.60;74.30;;;;;;5011540;28;20034;-64
2021/10/12 02:00:59;;;;;;;3.97;1.00;;;18.60;74.30;;;;;;4994359;28;20499;-63
2021/10/12 02:03:27;;;;;;;3.05;0.93;;;18.70;74.10;;;;;;5011831;28;20033;-64
2021/10/12 02:05:55;;;;;;;4.72;1.33;;;18.70;74.00;;;;;;5011581;28;20418;-66
2021/10/12 02:08:22;;;;;;;3.65;1.08;;;18.70;73.80;;;;;;5010805;28;20021;-59
2021/10/12 02:10:50;;;;;;;3.15;1.13;;;18.80;74.00;;;;;;5010980;28;20159;-66
2021/10/12 02:13:18;;;;;;;6.25;1.10;;;18.80;74.00;;;;;;5011539;28;20030;-67
2021/10/12 02:15:45;;;;;;;6.45;1.08;;;18.80;74.10;;;;;;5011019;28;20045;-62
2021/10/12 02:18:13;;;;;;;12.13;1.10;;;18.80;74.20;;;;;;5010876;28;20026;-61
2021/10/12 02:20:42;;;;;;;3.38;1.20;;;18.80;74.10;;;;;;5011554;28;20037;-64
2021/10/12 02:23:09;;;;;;;6.05;1.10;;;18.80;74.50;;;;;;5010880;28;20036;-67
2021/10/12 02:25:37;;;;;;;4.72;1.23;;;18.80;74.80;;;;;;5010477;28;20040;-62
2021/10/12 02:28:05;;;;;;;5.07;0.90;;;18.80;75.10;;;;;;5011180;28;20021;-67
2021/10/12 02:30:36;;;;;;;7.85;1.40;;;18.80;75.10;;;;;;5010955;28;20057;-63
2021/10/12 02:33:04;;;;;;;7.18;1.23;;;18.80;75.10;;;;;;5011290;28;20044;-66
2021/10/12 02:35:31;;;;;;;5.82;1.08;;;18.90;76.00;;;;;;5010518;28;20022;-62
2021/10/12 02:37:59;;;;;;;4.13;1.10;;;18.90;75.40;;;;;;5011222;28;20033;-64
2021/10/12 02:40:26;;;;;;;5.40;1.08;;;18.90;75.40;;;;;;5010804;28;20024;-65
2021/10/12 02:42:54;;;;;;;4.40;1.15;;;18.90;75.20;;;;;;5011106;28;20109;-64
2021/10/12 02:45:24;;;;;;;4.75;0.95;;;18.90;75.00;;;;;;5010559;28;20030;-65
2021/10/12 02:47:52;;;;;;;3.58;0.90;;;19.00;75.40;;;;;;5010712;28;20022;-63
2021/10/12 02:50:19;;;;;;;7.65;1.15;;;19.00;75.30;;;;;;5011028;28;20033;-66
2021/10/12 02:52:47;;;;;;;4.95;1.17;;;19.00;76.00;;;;;;5011197;28;20102;-56
2021/10/12 02:55:15;;;;;;;3.13;0.95;;;19.00;75.00;;;;;;5010382;28;20060;-63
2021/10/12 02:57:42;;;;;;;4.30;1.00;;;19.00;75.20;;;;;;5010409;28;20022;-63
2021/10/12 03:00:10;;;;;;;2.60;1.10;;;19.10;75.40;;;;;;5010645;28;20382;-61
2021/10/12 03:02:38;;;;;;;5.97;1.00;;;19.00;75.10;;;;;;5010473;28;20129;-64
2021/10/12 03:05:06;;;;;;;2.85;1.15;;;19.00;75.40;;;;;;4993211;28;20353;-65
2021/10/12 03:07:33;;;;;;;3.25;1.05;;;19.10;75.50;;;;;;5010342;28;20507;-64
2021/10/12 03:10:02;;;;;;;5.25;0.70;;;19.10;75.10;;;;;;5009434;28;20079;-63
2021/10/12 03:12:30;;;;;;;3.97;0.82;;;19.10;75.20;;;;;;5008301;28;20025;-65
2021/10/12 03:14:58;;;;;;;4.55;1.20;;;19.10;74.80;;;;;;5010025;28;20033;-64
2021/10/12 03:17:26;;;;;;;2.53;0.82;;;19.10;75.50;;;;;;4999990;28;20038;-63
2021/10/12 03:19:53;;;;;;;4.43;1.15;;;19.20;74.70;;;;;;5006474;28;20018;-61
2021/10/12 03:22:21;;;;;;;5.63;1.23;;;19.20;75.60;;;;;;5007204;28;20110;-63
2021/10/12 03:24:49;;;;;;;3.53;1.15;;;19.20;75.40;;;;;;5008386;28;20036;-61
2021/10/12 03:27:17;;;;;;;3.75;1.10;;;19.30;75.50;;;;;;5009445;28;20033;-61
2021/10/12 03:29:44;;;;;;;1.90;1.02;;;19.30;75.30;;;;;;5008354;28;20060;-66
2021/10/12 03:32:12;;;;;;;3.55;1.17;;;19.30;74.60;;;;;;5005025;28;20025;-60
2021/10/12 03:34:41;;;;;;;3.35;1.00;;;19.30;75.10;;;;;;5008558;28;20068;-64
2021/10/12 03:37:08;;;;;;;2.78;0.90;;;19.40;74.60;;;;;;5008923;28;20025;-59
2021/10/12 03:39:36;;;;;;;3.75;1.40;;;19.40;74.20;;;;;;5008255;28;20037;-65
2021/10/12 03:42:04;;;;;;;2.92;1.20;;;19.40;74.30;;;;;;5000926;28;20037;-63
2021/10/12 03:44:32;;;;;;;2.58;0.93;;;19.40;74.30;;;;;;5008944;28;20448;-62
2021/10/12 03:47:00;;;;;;;3.47;1.00;;;19.40;73.80;;;;;;5008850;28;20030;-63
2021/10/12 03:49:27;;;;;;;3.70;1.00;;;19.50;73.00;;;;;;4990799;28;20022;-64
2021/10/12 03:51:55;;;;;;;4.47;1.55;;;19.50;73.40;;;;;;5003987;28;20411;-62
2021/10/12 03:54:22;;;;;;;2.58;1.08;;;19.50;73.50;;;;;;5008571;28;20053;-63
2021/10/12 03:56:50;;;;;;;4.13;1.40;;;19.50;73.30;;;;;;5007613;28;20113;-64
2021/10/12 03:59:17;;;;;;;2.75;1.00;;;19.50;73.30;;;;;;5008208;28;20376;-66
2021/10/12 04:01:45;;;;;;;5.68;0.77;;;19.50;72.80;;;;;;4986472;28;20670;-65
2021/10/12 04:04:12;;;;;;;2.03;0.88;;;19.50;72.90;;;;;;5010684;28;20030;-60
2021/10/12 04:06:40;;;;;;;4.82;0.95;;;19.50;72.50;;;;;;5010229;28;20029;-66
2021/10/12 04:09:07;;;;;;;4.18;1.10;;;19.50;72.60;;;;;;5009794;28;20018;-67
2021/10/12 04:11:35;;;;;;;1.75;0.73;;;19.40;72.20;;;;;;5009920;28;20030;-62
2021/10/12 04:14:02;;;;;;;3.17;1.08;;;19.40;72.50;;;;;;5009562;28;20030;-63
2021/10/12 04:16:31;;;;;;;2.40;0.98;;;19.50;72.70;;;;;;4992711;28;20101;-59
2021/10/12 04:18:58;;;;;;;3.65;0.95;;;19.40;72.50;;;;;;5009649;28;20369;-64
2021/10/12 04:21:26;;;;;;;2.78;1.00;;;19.40;72.80;;;;;;5009949;28;20026;-68
2021/10/12 04:23:54;;;;;;;3.03;0.80;;;19.40;73.30;;;;;;5009700;28;20138;-67
2021/10/12 04:26:24;;;;;;;3.05;0.70;;;19.30;72.10;;;;;;5009604;28;20037;-63
2021/10/12 04:28:51;;;;;;;2.22;1.02;;;19.30;72.40;;;;;;5009242;28;20041;-65
2021/10/12 04:31:19;;;;;;;3.28;0.73;;;19.30;72.60;;;;;;5009073;28;20380;-65
2021/10/12 04:33:47;;;;;;;3.22;0.80;;;19.30;72.50;;;;;;5009752;28;20034;-65
2021/10/12 04:36:14;;;;;;;2.97;0.77;;;19.30;72.50;;;;;;5009793;28;20026;-66
2021/10/12 04:38:41;;;;;;;3.42;0.95;;;19.30;72.60;;;;;;5009319;28;20088;-64
2021/10/12 04:41:09;;;;;;;2.75;0.80;;;19.30;72.00;;;;;;5009656;28;20409;-64
2021/10/12 04:43:37;;;;;;;2.92;0.98;;;19.30;72.00;;;;;;5009462;28;20034;-60
2021/10/12 04:46:04;;;;;;;3.80;0.85;;;19.30;72.40;;;;;;5009229;28;20117;-63
2021/10/12 04:48:32;;;;;;;2.53;0.95;;;19.30;72.70;;;;;;5009361;28;20441;-69
2021/10/12 04:50:59;;;;;;;2.85;0.60;;;19.30;72.00;;;;;;5009434;28;20392;-66
2021/10/12 04:53:28;;;;;;;2.38;0.85;;;19.30;71.70;;;;;;5009075;28;20106;-64
2021/10/12 04:55:56;;;;;;;1.67;0.68;;;19.30;71.70;;;;;;5009073;28;20105;-64
2021/10/12 04:58:24;;;;;;;3.05;0.90;;;19.30;72.30;;;;;;5009499;28;20066;-63
2021/10/12 05:00:51;;;;;;;1.73;0.82;;;19.30;71.90;;;;;;4992031;28;20032;-64
2021/10/12 05:03:22;;;;;;;2.08;0.93;;;19.30;72.10;;;;;;5009134;28;20499;-67
2021/10/12 05:05:49;;;;;;;1.92;0.93;;;19.20;71.50;;;;;;5008837;28;20455;-60
2021/10/12 05:08:17;;;;;;;3.40;1.00;;;19.20;71.70;;;;;;5012170;28;20037;-68
2021/10/12 05:10:44;;;;;;;3.13;0.90;;;19.20;72.20;;;;;;5013149;28;20026;-66
2021/10/12 05:13:11;;;;;;;3.15;1.10;;;19.30;72.30;;;;;;5012568;28;20417;-69
2021/10/12 05:15:46;;;;;;;2.05;0.80;;;19.20;71.90;;;;;;4994660;28;20036;-60
2021/10/12 05:18:21;;;;;;;5.78;1.20;;;19.20;72.40;;;;;;5012057;28;20034;-67
2021/10/12 05:20:49;;;;;;;1.33;0.65;;;19.20;72.40;;;;;;5012272;28;20113;-57
2021/10/12 05:23:17;;;;;;;2.95;1.13;;;19.20;71.50;;;;;;4994977;28;20349;-65
2021/10/12 05:25:49;;;;;;;4.38;1.50;;;19.20;71.10;;;;;;5011882;28;20037;-62
2021/10/12 05:28:18;;;;;;;3.13;0.95;;;19.20;71.50;;;;;;5012488;28;20086;-66
2021/10/12 05:30:45;;;;;;;1.38;0.82;;;19.20;72.00;;;;;;5012328;28;20022;-64
2021/10/12 05:33:15;;;;;;;3.00;0.70;;;19.10;72.00;;;;;;5004775;28;20090;-64
2021/10/12 05:35:43;;;;;;;3.13;0.93;;;19.10;72.40;;;;;;5009042;28;20109;-61
2021/10/12 05:38:11;;;;;;;5.38;0.95;;;19.20;72.50;;;;;;5010240;28;20058;-61
2021/10/12 05:40:39;;;;;;;3.47;0.98;;;19.20;72.20;;;;;;5007520;28;20041;-66
2021/10/12 05:43:06;;;;;;;2.58;0.88;;;19.20;72.10;;;;;;5009531;28;20082;-60
2021/10/12 05:45:35;;;;;;;2.30;0.90;;;19.20;72.00;;;;;;5010672;28;20022;-60
2021/10/12 05:48:06;;;;;;;2.90;0.90;;;19.20;72.10;;;;;;5010817;28;20033;-64
2021/10/12 05:50:36;;;;;;;3.08;1.10;;;19.20;72.00;;;;;;5006250;28;20333;-69
2021/10/12 05:56:04;;;;;;;2.92;0.85;;;19.20;72.10;;;;;;5010416;28;20029;-67
2021/10/12 05:58:48;;;;;;;3.20;0.70;;;19.20;72.20;;;;;;5010844;28;20045;-62
2021/10/12 06:01:20;;;;;;;1.92;0.85;;;19.30;72.10;;;;;;5006586;28;20484;-64
2021/10/12 06:03:50;;;;;;;2.58;0.85;;;19.30;71.80;;;;;;5009269;28;20075;-58
2021/10/12 06:06:18;;;;;;;1.83;0.90;;;19.30;72.00;;;;;;5010261;28;20033;-62
2021/10/12 06:08:46;;;;;;;3.90;0.90;;;19.20;71.60;;;;;;5010289;28;20034;-62
2021/10/12 06:11:14;;;;;;;3.33;0.70;;;19.30;71.60;;;;;;5005662;28;20026;-65
2021/10/12 06:13:42;;;;;;;3.85;0.93;;;19.30;71.50;;;;;;5008871;28;20040;-58
2021/10/12 06:16:10;;;;;;;2.05;0.65;;;19.30;71.70;;;;;;5010477;28;20480;-62
2021/10/12 06:18:37;;;;;;;2.75;0.80;;;19.30;71.60;;;;;;5009455;28;20026;-65
2021/10/12 06:21:05;;;;;;;2.33;0.80;;;19.30;70.60;;;;;;5005886;28;20524;-63
2021/10/12 06:23:32;;;;;;;4.53;0.47;;;19.30;71.30;;;;;;5005477;28;20021;-60
2021/10/12 06:26:00;;;;;;;3.08;0.90;;;19.30;71.20;;;;;;5009786;28;20057;-65
2021/10/12 06:28:29;;;;;;;2.67;0.70;;;19.30;71.50;;;;;;5009827;28;20109;-63
2021/10/12 06:30:56;;;;;;;2.78;0.60;;;19.20;71.30;;;;;;5005745;28;20030;-62
2021/10/12 06:33:24;;;;;;;1.55;0.70;;;19.30;71.40;;;;;;5008777;28;20038;-65
2021/10/12 06:35:52;;;;;;;1.50;0.60;;;19.30;71.40;;;;;;5010064;28;20029;-68
2021/10/12 06:38:19;;;;;;;2.58;1.20;;;19.30;71.30;;;;;;5009641;28;20026;-68
2021/10/12 06:40:47;;;;;;;2.92;1.02;;;19.20;71.20;;;;;;5005914;28;20045;-63
2021/10/12 06:43:14;;;;;;;2.22;0.75;;;19.20;71.00;;;;;;5009275;28;20111;-65
2021/10/12 06:45:42;;;;;;;3.65;1.33;;;19.30;71.40;;;;;;5009856;28;20338;-64
2021/10/12 06:48:09;;;;;;;2.50;1.17;;;19.20;71.10;;;;;;5009059;28;20092;-63
2021/10/12 06:50:37;;;;;;;3.20;1.25;;;19.20;71.00;;;;;;5005418;28;20034;-66
2021/10/12 06:53:05;;;;;;;1.98;0.75;;;19.20;71.30;;;;;;5005174;28;20113;-67
2021/10/12 06:55:33;;;;;;;6.10;0.98;;;19.20;71.10;;;;;;5009005;28;20038;-66
2021/10/12 06:58:01;;;;;;;1.60;0.98;;;19.20;71.30;;;;;;4991061;28;20026;-66
2021/10/12 07:00:29;;;;;;;3.40;1.15;;;19.20;71.30;;;;;;5005621;28;20068;-68
2021/10/12 07:02:57;;;;;;;5.43;0.80;;;19.20;70.80;;;;;;5009677;28;20133;-64
2021/10/12 07:05:25;;;;;;;4.30;0.98;;;19.20;70.60;;;;;;4975995;28;20026;-65
2021/10/12 07:07:53;;;;;;;3.22;0.95;;;19.20;71.10;;;;;;5009254;28;20048;-67
2021/10/12 07:10:20;;;;;;;4.55;0.98;;;19.20;71.10;;;;;;5002501;28;20075;-64
2021/10/12 07:12:49;;;;;;;3.28;0.80;;;19.20;71.30;;;;;;5007480;28;20033;-63
2021/10/12 07:15:17;;;;;;;3.72;0.95;;;19.20;71.30;;;;;;5008633;28;20026;-63
2021/10/12 07:17:44;;;;;;;3.28;0.80;;;19.10;71.20;;;;;;5008548;28;20026;-65
2021/10/12 07:20:12;;;;;;;4.70;0.90;;;19.10;71.20;;;;;;5008819;28;20065;-63
2021/10/12 07:22:40;;;;;;;2.00;0.98;;;19.10;71.00;;;;;;5006776;28;20047;-62
2021/10/12 07:25:09;;;;;;;2.30;0.80;;;19.10;71.30;;;;;;5008173;28;20022;-62
2021/10/12 07:27:36;;;;;;;4.30;1.10;;;19.10;70.70;;;;;;5008846;28;20052;-62
2021/10/12 07:30:05;;;;;;;2.50;0.90;;;19.10;71.00;;;;;;5008911;28;20061;-61
2021/10/12 07:32:34;;;;;;;1.38;0.82;;;19.10;70.90;;;;;;5004987;28;20022;-56
2021/10/12 07:35:02;;;;;;;3.95;1.40;;;19.10;70.80;;;;;;5008982;28;20087;-51
2021/10/12 07:37:30;;;;;;;2.15;0.82;;;19.10;70.60;;;;;;5010057;28;20034;-54
2021/10/12 07:39:58;;;;;;;3.10;1.00;;;19.10;70.70;;;;;;5009749;28;20108;-59
2021/10/12 07:42:25;;;;;;;5.60;1.17;;;19.10;70.70;;;;;;5010273;28;20030;-57
2021/10/12 07:44:53;;;;;;;4.32;1.40;;;19.10;70.70;;;;;;5010175;28;20377;-58
2021/10/12 07:47:21;;;;;;;2.40;1.05;;;19.10;70.10;;;;;;5010439;28;20049;-57
2021/10/12 07:49:49;;;;;;;3.13;1.00;;;19.10;70.70;;;;;;5009480;28;20029;-64
2021/10/12 07:52:17;;;;;;;2.70;0.85;;;19.10;70.70;;;;;;5010080;28;20026;-61
2021/10/12 07:57:41;;;;;;;3.13;1.10;;;19.00;70.80;;;;;;4993152;28;20441;-62
2021/10/12 08:00:10;;;;;;;3.65;1.10;;;19.00;70.90;;;;;;4987933;28;20030;-66
2021/10/12 08:02:37;;;;;;;2.55;1.08;;;19.00;70.40;;;;;;5006434;28;20015;-64
2021/10/12 08:05:05;;;;;;;5.03;1.30;;;18.90;70.70;;;;;;5009576;28;20026;-63
2021/10/12 08:07:33;;;;;;;4.35;1.27;;;19.00;71.00;;;;;;5007513;28;20030;-57
2021/10/12 08:10:00;;;;;;;3.55;1.10;;;18.90;70.80;;;;;;4992860;28;20468;-58
2021/10/12 08:12:28;;;;;;;3.45;1.40;;;18.90;70.90;;;;;;5008773;28;20173;-57
2021/10/12 08:14:59;;;;;;;3.70;1.27;;;18.90;70.90;;;;;;5005606;28;20464;-60
2021/10/12 08:17:27;;;;;;;3.33;1.10;;;18.90;70.70;;;;;;5001852;28;20033;-61
2021/10/12 08:19:55;;;;;;;3.50;1.20;;;18.90;70.70;;;;;;5010225;28;20037;-62
2021/10/12 08:22:22;;;;;;;4.68;1.30;;;18.90;70.50;;;;;;5008874;28;20033;-62
2021/10/12 08:24:50;;;;;;;2.58;1.15;;;18.90;71.00;;;;;;5009438;28;20033;-64
2021/10/12 08:27:17;;;;;;;3.47;1.20;;;18.90;70.90;;;;;;5004914;28;20110;-65
2021/10/12 08:29:45;;;;;;;5.82;1.63;;;18.90;71.10;;;;;;4991861;28;20437;-61
2021/10/12 08:32:12;;;;;;;2.65;1.30;;;18.90;71.20;;;;;;5007327;28;20045;-62
2021/10/12 08:34:41;;;;;;;4.28;1.58;;;18.90;71.40;;;;;;5009330;28;20057;-62
2021/10/12 08:37:09;;;;;;;3.42;1.40;;;18.90;71.40;;;;;;5004938;28;20041;-58
2021/10/12 08:39:41;;;;;;;3.42;1.42;;;18.90;72.10;;;;;;5009050;28;20112;-62
2021/10/12 08:42:13;;;;;;;3.83;1.83;;;18.90;71.60;;;;;;5008017;28;20033;-61
2021/10/12 08:45:06;;;;;;;;;;;18.80;71.40;;;;;;5013726;28;20020;-62
2021/10/12 08:47:36;;;;;;;6.50;1.65;;;18.90;71.40;;;;;;5013917;28;19912;-62
2021/10/12 08:50:10;;;;;;;4.13;2.20;;;18.80;71.70;;;;;;5012777;28;20114;-61
2021/10/12 08:52:37;;;;;;;5.07;1.38;;;18.90;71.90;;;;;;5012676;28;20030;-59
2021/10/12 08:55:06;;;;;;;3.60;1.95;;;18.80;72.30;;;;;;5013036;28;20511;-60
2021/10/12 08:57:37;;;;;;;6.63;1.77;;;18.80;72.00;;;;;;5013334;28;20034;-62
2021/10/12 09:00:09;;;;;;;7.78;3.13;;;18.80;72.00;;;;;;5013688;28;20033;-63
2021/10/12 09:03:15;;;;;;;9.00;3.20;;;18.80;72.40;;;;;;5013154;28;20018;-60
2021/10/12 09:05:57;;;;;;;5.78;2.55;;;18.80;72.50;;;;;;5012536;28;20036;-63
2021/10/12 09:08:35;;;;;;;18.52;8.02;;;18.80;72.40;;;;;;5011824;28;20026;-58
2021/10/12 09:11:23;;;;;;;30.08;15.27;;;18.80;73.30;;;;;;5012991;28;20422;-64
2021/10/12 09:14:03;;;;;;;50.10;25.40;;;18.90;75.60;;;;;;5012503;28;20066;-60
2021/10/12 09:16:41;;;;;;;62.75;33.13;;;18.90;75.20;;;;;;5012847;28;20051;-62
2021/10/12 09:19:12;;;;;;;56.50;26.00;;;18.90;75.00;;;;;;4995100;28;20033;-59
2021/10/12 09:21:45;;;;;;;58.50;32.08;;;19.00;74.90;;;;;;5012569;28;20079;-59
2021/10/12 09:24:11;;;;;;;;;;;19.00;74.50;;;;;;5012926;28;20117;-58
2021/10/12 09:26:43;;;;;;;105.30;49.72;;;18.90;74.10;;;;;;5012617;28;19906;-62
2021/10/12 09:29:23;;;;;;;107.90;56.15;;;19.00;74.10;;;;;;5012937;28;20032;-64
2021/10/12 09:31:52;;;;;;;109.25;54.85;;;19.00;74.00;;;;;;5013068;28;20374;-62
2021/10/12 09:34:20;;;;;;;119.32;58.78;;;18.90;74.00;;;;;;5012163;28;20026;-62
2021/10/12 09:36:52;;;;;;;117.88;61.90;;;19.00;74.20;;;;;;5012494;28;20353;-63
2021/10/12 09:39:29;;;;;;;127.43;61.28;;;19.00;73.60;;;;;;5012211;28;20476;-62
2021/10/12 09:41:59;;;;;;;119.28;63.15;;;18.90;73.50;;;;;;5012237;28;20026;-55
2021/10/12 09:44:28;;;;;;;128.68;65.55;;;18.90;73.30;;;;;;5012697;28;20414;-56
2021/10/12 09:47:08;;;;;;;136.07;68.28;;;18.90;73.50;;;;;;5012213;28;20039;-59
2021/10/12 09:49:36;;;;;;;132.50;67.10;;;18.90;73.30;;;;;;5012015;28;20397;-64
2021/10/12 09:52:03;;;;;;;131.75;66.55;;;18.90;73.30;;;;;;5012150;28;20110;-52
2021/10/12 09:54:37;;;;;;;131.38;68.80;;;18.90;73.00;;;;;;5010745;28;20511;-63
2021/10/12 09:57:07;;;;;;;135.52;68.55;;;18.90;72.90;;;;;;5012425;28;20532;-57
2021/10/12 09:59:35;;;;;;;135.55;67.97;;;18.80;72.80;;;;;;5012192;28;20037;-59
2021/10/12 10:02:03;;;;;;;129.68;68.78;;;18.80;72.70;;;;;;5011815;28;20033;-62
2021/10/12 10:04:31;;;;;;;133.30;67.53;;;18.80;72.60;;;;;;5012144;28;20022;-57
2021/10/12 10:07:04;;;;;;;132.32;65.10;;;18.80;70.90;;;;;;5012129;28;20099;-65
2021/10/12 10:09:40;;;;;;;138.27;65.85;;;18.70;72.60;;;;;;5002241;28;20026;-64
2021/10/12 10:12:08;;;;;;;130.45;68.60;;;18.70;72.90;;;;;;5007615;28;20030;-60
2021/10/12 10:14:39;;;;;;;129.43;66.97;;;18.70;72.70;;;;;;5006198;28;20046;-68
2021/10/12 10:17:07;;;;;;;132.82;67.25;;;18.70;72.40;;;;;;5008029;28;20030;-68
2021/10/12 10:19:41;;;;;;;140.05;67.45;;;18.70;72.50;;;;;;5009855;28;20245;-63
2021/10/12 10:22:09;;;;;;;139.85;68.85;;;18.70;72.50;;;;;;5007737;28;20480;-68
2021/10/12 10:24:47;;;;;;;130.02;66.90;;;18.70;72.40;;;;;;5003906;28;20018;-61
2021/10/12 10:27:41;;;;;;;125.53;64.45;;;18.70;72.20;;;;;;5009402;28;20052;-67
2021/10/12 10:30:33;;;;;;;126.38;66.13;;;18.70;72.10;;;;;;5010131;28;20038;-64
2021/10/12 10:33:05;;;;;;;125.22;65.30;;;18.80;72.10;;;;;;5008106;28;20059;-64
2021/10/12 10:35:42;;;;;;;;;;;18.70;71.90;;;;;;5005047;28;20034;-63
2021/10/12 10:38:47;;;;;;;120.93;64.00;;;18.80;71.90;;;;;;5008334;28;19913;-59
2021/10/12 10:41:15;;;;;;;126.50;63.80;;;18.80;71.80;;;;;;5002919;28;20030;-65
2021/10/12 10:43:56;;;;;;;119.95;62.25;;;18.80;71.40;;;;;;5008427;28;20029;-62
2021/10/12 10:46:34;;;;;;;126.75;65.30;;;18.70;71.30;;;;;;5010509;28;20090;-63
2021/10/12 10:49:25;;;;;;;121.55;64.50;;;18.80;71.30;;;;;;5010098;28;20116;-64
2021/10/12 10:52:09;;;;;;;126.28;65.25;;;18.70;71.30;;;;;;5006921;28;20018;-65
2021/10/12 10:54:43;;;;;;;131.82;66.70;;;18.70;71.30;;;;;;5005991;28;20042;-65
2021/10/12 10:57:21;;;;;;;117.95;63.67;;;18.70;71.30;;;;;;5010241;28;20033;-62
2021/10/12 11:00:13;;;;;;;120.80;62.58;;;18.70;71.20;;;;;;5005725;28;20030;-62
2021/10/12 11:02:45;;;;;;;119.80;61.17;;;18.80;71.20;;;;;;4991751;28;20448;-65
2021/10/12 11:05:30;;;;;;;;;;;18.70;70.90;;;;;;4991195;28;20038;-65
2021/10/12 11:08:39;;;;;;;109.38;58.83;;;18.70;71.00;;;;;;4991331;28;20368;-68
2021/10/12 11:11:10;;;;;;;94.82;52.38;;;18.70;70.80;;;;;;4992155;28;20502;-63
2021/10/12 11:13:39;;;;;;;100.47;53.92;;;18.70;70.20;;;;;;4993256;28;20434;-63
2021/10/12 11:16:11;;;;;;;93.63;51.08;;;18.70;70.50;;;;;;4991856;28;20110;-66
2021/10/12 11:18:41;;;;;;;94.80;49.53;;;18.60;70.30;;;;;;4991735;28;20038;-60
2021/10/12 11:21:10;;;;;;;93.55;47.90;;;18.60;70.20;;;;;;4991584;28;20057;-65
2021/10/12 11:23:43;;;;;;;86.88;47.90;;;18.60;70.10;;;;;;4991706;28;20022;-58
2021/10/12 11:26:12;;;;;;;84.43;45.63;;;18.60;70.10;;;;;;4991346;28;20030;-62
2021/10/12 11:28:43;;;;;;;86.38;46.30;;;18.60;70.10;;;;;;4990187;28;20030;-66
2021/10/12 11:31:16;;;;;;;78.18;42.50;;;18.50;69.90;;;;;;4991758;28;20057;-67
2021/10/12 11:33:46;;;;;;;76.13;40.28;;;18.50;70.00;;;;;;4991149;28;20057;-62
2021/10/12 11:36:17;;;;;;;73.55;39.42;;;18.50;69.90;;;;;;4991106;28;20050;-68
2021/10/12 11:38:55;;;;;;;72.15;39.45;;;18.50;70.10;;;;;;4991322;28;20529;-63
2021/10/12 11:41:28;;;;;;;72.47;38.83;;;18.40;69.80;;;;;;4991099;28;20029;-66
2021/10/12 11:43:59;;;;;;;66.25;36.22;;;18.40;69.80;;;;;;4991040;28;20035;-66
2021/10/12 11:46:28;;;;;;;73.70;38.58;;;18.40;69.80;;;;;;4991150;28;20022;-63
2021/10/12 11:48:57;;;;;;;72.95;38.13;;;18.40;69.90;;;;;;4991286;28;20022;-64
2021/10/12 11:51:33;;;;;;;70.03;38.40;;;18.40;70.00;;;;;;4991114;28;20026;-62
2021/10/12 11:54:01;;;;;;;68.57;38.80;;;18.40;69.70;;;;;;4990894;28;20061;-69
2021/10/12 11:56:36;;;;;;;68.60;37.08;;;18.30;69.90;;;;;;4991404;28;20026;-66
2021/10/12 11:59:10;;;;;;;59.78;33.20;;;18.30;69.90;;;;;;4991057;28;20057;-64
2021/10/12 12:01:43;;;;;;;64.65;34.42;;;18.30;69.70;;;;;;4973770;28;20033;-60
2021/10/12 12:04:09;;;;;;;;;;;18.30;69.90;;;;;;4991023;28;20065;-69
2021/10/12 12:06:39;;;;;;;59.75;31.80;;;18.30;69.80;;;;;;4990632;28;19988;-68
2021/10/12 12:09:17;;;;;;;58.50;31.65;;;18.30;69.70;;;;;;4973189;28;20030;-59
2021/10/12 12:11:44;;;;;;;56.45;29.42;;;18.20;69.60;;;;;;4990908;28;20052;-62
2021/10/12 12:14:12;;;;;;;53.47;29.35;;;18.20;69.60;;;;;;4990481;28;20038;-62
2021/10/12 12:16:39;;;;;;;51.90;27.60;;;18.20;69.60;;;;;;4989717;28;20030;-65
2021/10/12 12:19:20;;;;;;;50.20;28.90;;;18.20;69.70;;;;;;4990434;28;20034;-62
2021/10/12 12:21:48;;;;;;;47.22;27.40;;;18.20;69.60;;;;;;4990263;28;20026;-61
2021/10/12 12:24:23;;;;;;;43.78;24.67;;;18.20;69.60;;;;;;4990522;28;20038;-65
2021/10/12 12:27:11;;;;;;;46.42;26.00;;;18.20;69.30;;;;;;4990710;28;20022;-68
2021/10/12 12:29:38;;;;;;;44.83;25.45;;;18.20;69.50;;;;;;4990829;28;20026;-58
2021/10/12 12:32:13;;;;;;;44.80;25.33;;;18.20;69.40;;;;;;4990472;28;20389;-62
2021/10/12 12:34:41;;;;;;;47.75;22.92;;;18.20;69.50;;;;;;4990727;28;20043;-60
2021/10/12 12:37:08;;;;;;;35.85;21.95;;;18.20;69.40;;;;;;4990566;28;20037;-64
2021/10/12 12:39:42;;;;;;;39.25;21.92;;;18.20;69.40;;;;;;4990336;28;20034;-66
2021/10/12 12:42:31;;;;;;;41.30;22.23;;;18.20;69.30;;;;;;4990197;28;20453;-62
2021/10/12 12:45:22;;;;;;;37.75;20.90;;;18.10;69.30;;;;;;5002795;28;20079;-62
2021/10/12 12:48:23;;;;;;;38.97;21.58;;;18.10;69.20;;;;;;5009786;28;20468;-63
2021/10/12 12:51:05;;;;;;;35.97;21.42;;;18.10;69.20;;;;;;5009867;28;20030;-62
2021/10/12 12:53:48;;;;;;;37.47;20.52;;;18.10;69.30;;;;;;5009810;28;20050;-67
2021/10/12 12:56:19;;;;;;;37.40;20.23;;;18.10;69.30;;;;;;5009886;28;20038;-63
2021/10/12 12:58:48;;;;;;;34.78;18.67;;;18.10;69.40;;;;;;5009937;28;20373;-63
2021/10/12 13:01:17;;;;;;;35.20;18.67;;;18.10;69.40;;;;;;5009647;28;20041;-66
2021/10/12 13:03:52;;;;;;;34.78;20.25;;;18.10;69.50;;;;;;5009601;28;20121;-60